Nieuw-Lotbroek, Netherlands
Current Conditions -  °F | °C
As of 4:50 AM on Thursday 27 Nov 2014 (Local Time) from ETNG Reporting Station
Broken Clouds Broken Clouds  
Wind Chill: 38°   Ceiling: 4500
Heat Index: 43°   Visibility: 6mi
Dew Point: 41°   Wind: 8mph
Humidity: 93%   Direction: 100°E
Pressure: 29.8"   Gusts: NA
Location:  50.91°N, 5.93°E
Report Text: ETNG 270350Z 10007KT 9000 FEW034 BKN045 06/05 Q1009
Loading
Personal Weather Stations






























Interactive Weather Map New forecast layout! Learn more

10-Day Weather Forecast

Advertisements
Track Severe Weather on mobile